Time;durP1;ratioP1;P1;durP2;ratioP2;P2;SDS_P1;SDS_P2;PMS_P1;PMS_P2;Temp;Humidity;BMP_temperature;BMP_pressure;BME280_temperature;BME280_humidity;BME280_pressure;Samples;Min_cycle;Max_cycle;Signal;HPM_P1;HPM_P2
2021/09/03 00:01:22;;;;;;;;;;;17.70;61.30;;;;;;4997844;28;87225;-59
2021/09/03 00:03:48;;;;;;;;;;;17.70;61.00;;;;;;5001130;28;88669;-59
2021/09/03 00:06:13;;;;;;;;;;;17.70;61.00;;;;;;4999493;28;87182;-59
2021/09/03 00:08:39;;;;;;;;;;;17.80;61.10;;;;;;4999101;28;89056;-58
2021/09/03 00:11:05;;;;;;;;;;;17.70;60.90;;;;;;4999201;28;88825;-59
2021/09/03 00:13:30;;;;;;;;;;;17.70;60.70;;;;;;5001311;28;87173;-59
2021/09/03 00:15:56;;;;;;;;;;;17.80;60.60;;;;;;5002477;28;87620;-58
2021/09/03 00:18:21;;;;;;;;;;;17.70;60.60;;;;;;4999685;28;88024;-58
2021/09/03 00:20:47;;;;;;;;;;;17.70;60.60;;;;;;4998011;28;87149;-58
2021/09/03 00:23:13;;;;;;;;;;;17.70;60.50;;;;;;4999024;28;87132;-58
2021/09/03 00:25:39;;;;;;;;;;;17.70;60.60;;;;;;5001442;28;87819;-58
2021/09/03 00:28:05;;;;;;;;;;;17.70;60.50;;;;;;4999232;28;87536;-58
2021/09/03 00:30:30;;;;;;;;;;;17.70;60.50;;;;;;4999471;28;88020;-58
2021/09/03 00:32:56;;;;;;;;;;;17.70;60.50;;;;;;5000942;28;87285;-58
2021/09/03 00:35:21;;;;;;;;;;;17.70;60.50;;;;;;5001666;28;88123;-59
2021/09/03 00:37:47;;;;;;;;;;;17.70;60.50;;;;;;4998621;28;89910;-59
2021/09/03 00:40:12;;;;;;;;;;;17.70;60.50;;;;;;4997959;28;87210;-59
2021/09/03 00:42:38;;;;;;;;;;;17.70;60.50;;;;;;4998875;28;87542;-59
2021/09/03 00:45:04;;;;;;;;;;;17.70;60.40;;;;;;4998612;28;88037;-59
2021/09/03 00:47:30;;;;;;;;;;;17.70;60.40;;;;;;5002215;28;87162;-58
2021/09/03 00:49:55;;;;;;;;;;;17.70;60.50;;;;;;4999962;28;89324;-59
2021/09/03 00:52:21;;;;;;;;;;;17.60;60.60;;;;;;5002252;28;86409;-57
2021/09/03 00:54:47;;;;;;;;;;;17.60;60.50;;;;;;5002041;28;87187;-59
2021/09/03 00:57:13;;;;;;;;;;;17.60;60.50;;;;;;4999170;28;89505;-59
2021/09/03 00:59:39;;;;;;;;;;;17.60;60.60;;;;;;4996754;28;89896;-58
2021/09/03 01:02:23;;;;;;;;;;;17.60;60.50;;;;;;4997927;28;89641;-59
2021/09/03 01:04:48;;;;;;;;;;;17.50;60.60;;;;;;5000968;28;89486;-57
2021/09/03 01:07:14;;;;;;;;;;;17.50;60.50;;;;;;5000838;28;88784;-59
2021/09/03 01:09:40;;;;;;;;;;;17.50;60.70;;;;;;5001390;28;87309;-59
2021/09/03 01:12:06;;;;;;;;;;;17.60;60.40;;;;;;4997353;28;87155;-59
2021/09/03 01:14:31;;;;;;;;;;;17.50;60.40;;;;;;4997994;28;90348;-59
2021/09/03 01:16:57;;;;;;;;;;;17.60;61.20;;;;;;4999601;28;86955;-59
2021/09/03 01:19:23;;;;;;;;;;;17.50;60.50;;;;;;4999897;28;87171;-58
2021/09/03 01:21:49;;;;;;;;;;;17.50;60.40;;;;;;5001373;28;87746;-58
2021/09/03 01:24:15;;;;;;;;;;;17.50;60.50;;;;;;5000177;28;90526;-59
2021/09/03 01:26:40;;;;;;;;;;;17.50;60.50;;;;;;4999660;28;88050;-59
2021/09/03 01:29:06;;;;;;;;;;;17.50;60.60;;;;;;4999087;28;87225;-58
2021/09/03 01:31:31;;;;;;;;;;;17.50;60.60;;;;;;4996652;28;87202;-59
2021/09/03 01:33:57;;;;;;;;;;;17.50;60.40;;;;;;4997790;28;89072;-58
2021/09/03 01:36:29;;;;;;;;;;;17.40;60.40;;;;;;4997577;28;90029;-58
2021/09/03 01:38:55;;;;;;;;;;;17.50;60.40;;;;;;4998526;28;87759;-59
2021/09/03 01:41:21;;;;;;;;;;;17.50;60.40;;;;;;4997456;28;88155;-58
2021/09/03 01:43:47;;;;;;;;;;;17.50;60.30;;;;;;4996777;28;89802;-59
2021/09/03 01:46:12;;;;;;;;;;;17.40;60.30;;;;;;4996906;28;88762;-59
2021/09/03 01:48:38;;;;;;;;;;;17.40;60.30;;;;;;4996715;28;88158;-58
2021/09/03 01:51:03;;;;;;;;;;;17.40;60.30;;;;;;5001102;28;88099;-58
2021/09/03 01:53:29;;;;;;;;;;;17.40;60.40;;;;;;4999754;28;87353;-59
2021/09/03 01:55:54;;;;;;;;;;;17.40;60.40;;;;;;5000697;28;88220;-59
2021/09/03 01:58:20;;;;;;;;;;;17.40;60.40;;;;;;4998189;28;88181;-59
2021/09/03 02:00:45;;;;;;;;;;;17.30;60.40;;;;;;4996473;28;87387;-59
2021/09/03 02:03:11;;;;;;;;;;;17.30;60.40;;;;;;4997225;28;89944;-59
2021/09/03 02:05:37;;;;;;;;;;;17.30;60.40;;;;;;4999221;28;86520;-58
2021/09/03 02:08:02;;;;;;;;;;;17.30;60.40;;;;;;4999744;28;87166;-58
2021/09/03 02:10:28;;;;;;;;;;;17.30;60.40;;;;;;4998570;28;88057;-58
2021/09/03 02:12:53;;;;;;;;;;;17.30;60.30;;;;;;5002031;28;88096;-59
2021/09/03 02:15:19;;;;;;;;;;;17.30;60.20;;;;;;5000079;28;89630;-58
2021/09/03 02:17:44;;;;;;;;;;;17.30;60.10;;;;;;5000669;28;87167;-58
2021/09/03 02:20:10;;;;;;;;;;;17.30;60.00;;;;;;4999930;28;87164;-59
2021/09/03 02:22:36;;;;;;;;;;;17.30;60.10;;;;;;4998902;28;88347;-58
2021/09/03 02:25:01;;;;;;;;;;;17.20;60.10;;;;;;4998681;28;87146;-58
2021/09/03 02:27:27;;;;;;;;;;;17.20;60.10;;;;;;5002579;28;87305;-58
2021/09/03 02:29:52;;;;;;;;;;;17.20;60.80;;;;;;5002083;28;87464;-58
2021/09/03 02:32:20;;;;;;;;;;;17.20;60.30;;;;;;5002099;28;87249;-59
2021/09/03 02:34:46;;;;;;;;;;;17.20;60.20;;;;;;5002779;28;88721;-58
2021/09/03 02:37:11;;;;;;;;;;;17.10;60.20;;;;;;4999028;28;88075;-58
2021/09/03 02:39:37;;;;;;;;;;;17.10;60.30;;;;;;4999639;28;88153;-59
2021/09/03 02:42:02;;;;;;;;;;;17.10;60.30;;;;;;5000445;28;88174;-59
2021/09/03 02:44:28;;;;;;;;;;;17.10;60.20;;;;;;5000130;28;87166;-58
2021/09/03 02:46:53;;;;;;;;;;;17.10;60.20;;;;;;4999698;28;88565;-59
2021/09/03 02:49:19;;;;;;;;;;;17.10;60.20;;;;;;4998741;28;87564;-59
2021/09/03 02:51:44;;;;;;;;;;;17.10;60.30;;;;;;5001261;28;88728;-59
2021/09/03 02:54:10;;;;;;;;;;;17.10;60.30;;;;;;5003907;28;87846;-58
2021/09/03 02:56:35;;;;;;;;;;;17.10;60.20;;;;;;5006162;28;88244;-58
2021/09/03 02:59:01;;;;;;;;;;;17.10;60.20;;;;;;5002993;28;87285;-58
2021/09/03 03:01:27;;;;;;;;;;;17.10;60.20;;;;;;5000983;28;89227;-58
2021/09/03 03:03:52;;;;;;;;;;;17.00;60.10;;;;;;5001445;28;87159;-58
2021/09/03 03:06:18;;;;;;;;;;;17.00;60.10;;;;;;5001000;28;87229;-58
2021/09/03 03:08:43;;;;;;;;;;;17.00;60.20;;;;;;5001606;28;88733;-58
2021/09/03 03:11:09;;;;;;;;;;;17.00;60.20;;;;;;5003331;28;87206;-59
2021/09/03 03:13:34;;;;;;;;;;;17.00;60.10;;;;;;5001385;28;88057;-58
2021/09/03 03:16:00;;;;;;;;;;;17.00;60.20;;;;;;4998355;28;90852;-58
2021/09/03 03:18:26;;;;;;;;;;;17.00;60.20;;;;;;5002781;28;86413;-59
2021/09/03 03:20:51;;;;;;;;;;;16.90;60.10;;;;;;5000266;28;89235;-58
2021/09/03 03:23:17;;;;;;;;;;;16.90;60.20;;;;;;5000013;28;87126;-58
2021/09/03 03:25:43;;;;;;;;;;;16.90;60.10;;;;;;5000244;28;88167;-59
2021/09/03 03:28:09;;;;;;;;;;;17.00;60.20;;;;;;5001202;28;87736;-58
2021/09/03 03:30:35;;;;;;;;;;;16.90;60.20;;;;;;5001483;28;87161;-58
2021/09/03 03:33:00;;;;;;;;;;;16.90;60.10;;;;;;5002252;28;87105;-58
2021/09/03 03:35:26;;;;;;;;;;;16.90;60.20;;;;;;5002801;28;88100;-58
2021/09/03 03:37:52;;;;;;;;;;;16.80;60.20;;;;;;5004763;28;88539;-58
2021/09/03 03:40:17;;;;;;;;;;;16.90;60.20;;;;;;5001541;28;89389;-58
2021/09/03 03:42:43;;;;;;;;;;;16.90;60.20;;;;;;4999556;28;87215;-59
2021/09/03 03:45:09;;;;;;;;;;;16.80;60.20;;;;;;4999196;28;87119;-58
2021/09/03 03:47:34;;;;;;;;;;;16.80;60.30;;;;;;4999227;28;89279;-58
2021/09/03 03:50:00;;;;;;;;;;;16.80;60.30;;;;;;5000193;28;88122;-58
2021/09/03 03:52:26;;;;;;;;;;;16.70;60.40;;;;;;5002063;28;88659;-58
2021/09/03 03:54:51;;;;;;;;;;;16.70;60.40;;;;;;5002629;28;88467;-58
2021/09/03 03:57:17;;;;;;;;;;;16.80;60.30;;;;;;5002122;28;88491;-59
2021/09/03 03:59:42;;;;;;;;;;;16.80;60.30;;;;;;5005520;28;88011;-57
2021/09/03 04:02:08;;;;;;;;;;;16.80;60.10;;;;;;5000364;28;88708;-58
2021/09/03 04:04:33;;;;;;;;;;;16.70;60.10;;;;;;4998092;28;87893;-58
2021/09/03 04:06:59;;;;;;;;;;;16.70;60.10;;;;;;4999548;28;88529;-58
2021/09/03 04:09:25;;;;;;;;;;;16.70;60.20;;;;;;4998998;28;87232;-58
2021/09/03 04:11:51;;;;;;;;;;;16.70;60.20;;;;;;4999868;28;87160;-59
2021/09/03 04:14:18;;;;;;;;;;;16.70;60.20;;;;;;4999783;28;88471;-58
2021/09/03 04:16:43;;;;;;;;;;;16.70;60.20;;;;;;4998590;28;87142;-59
2021/09/03 04:19:09;;;;;;;;;;;16.70;60.20;;;;;;4998394;28;88249;-58
2021/09/03 04:21:34;;;;;;;;;;;16.60;60.80;;;;;;5002132;28;88612;-59
2021/09/03 04:24:00;;;;;;;;;;;16.60;60.20;;;;;;5000909;28;87223;-59
2021/09/03 04:26:25;;;;;;;;;;;16.60;60.30;;;;;;5001584;28;89056;-58
2021/09/03 04:28:51;;;;;;;;;;;16.60;60.40;;;;;;4999977;28;88163;-59
2021/09/03 04:31:16;;;;;;;;;;;16.60;60.30;;;;;;4998166;28;87969;-59
2021/09/03 04:33:42;;;;;;;;;;;16.60;60.20;;;;;;4998649;28;88533;-58
2021/09/03 04:36:07;;;;;;;;;;;16.50;60.20;;;;;;5000283;28;87141;-58
2021/09/03 04:38:33;;;;;;;;;;;16.60;60.10;;;;;;5000786;28;88244;-59
2021/09/03 04:40:59;;;;;;;;;;;16.50;60.20;;;;;;5000696;28;89771;-59
2021/09/03 04:43:24;;;;;;;;;;;16.60;60.30;;;;;;5004618;28;87263;-58
2021/09/03 04:45:50;;;;;;;;;;;16.50;60.10;;;;;;4998421;28;88701;-58
2021/09/03 04:48:15;;;;;;;;;;;16.50;60.20;;;;;;4997249;28;87109;-58
2021/09/03 04:50:41;;;;;;;;;;;16.50;60.20;;;;;;4998982;28;87578;-58
2021/09/03 04:53:07;;;;;;;;;;;16.50;60.20;;;;;;4999724;28;87582;-58
2021/09/03 04:55:32;;;;;;;;;;;16.50;60.20;;;;;;5001593;28;86439;-59
2021/09/03 04:57:58;;;;;;;;;;;16.50;60.20;;;;;;5001105;28;87138;-58
2021/09/03 05:00:24;;;;;;;;;;;16.50;60.30;;;;;;5001278;28;88134;-56
2021/09/03 05:02:49;;;;;;;;;;;16.50;60.30;;;;;;4999325;28;89724;-58
2021/09/03 05:05:15;;;;;;;;;;;16.50;60.10;;;;;;4999679;28;90024;-58
2021/09/03 05:07:41;;;;;;;;;;;16.50;60.00;;;;;;4997597;28;87257;-58
2021/09/03 05:10:08;;;;;;;;;;;16.50;60.10;;;;;;4998744;28;87121;-58
2021/09/03 05:12:34;;;;;;;;;;;16.50;60.00;;;;;;4997753;28;88934;-57
2021/09/03 05:15:00;;;;;;;;;;;16.40;60.10;;;;;;4998546;28;87137;-58
2021/09/03 05:17:26;;;;;;;;;;;16.40;60.10;;;;;;4997070;28;90299;-58
2021/09/03 05:19:51;;;;;;;;;;;16.50;60.10;;;;;;4997544;28;87450;-59
2021/09/03 05:22:17;;;;;;;;;;;16.40;60.00;;;;;;4998648;28;87141;-58
2021/09/03 05:24:42;;;;;;;;;;;16.40;60.10;;;;;;5002176;28;87114;-58
2021/09/03 05:27:08;;;;;;;;;;;16.40;60.10;;;;;;5000046;28;88049;-58
2021/09/03 05:29:33;;;;;;;;;;;16.40;60.10;;;;;;5000757;28;88346;-58
2021/09/03 05:31:59;;;;;;;;;;;16.40;60.10;;;;;;4999947;28;88992;-58
2021/09/03 05:34:24;;;;;;;;;;;16.40;60.10;;;;;;4997309;28;87937;-58
2021/09/03 05:36:50;;;;;;;;;;;16.40;60.00;;;;;;4997377;28;87891;-58
2021/09/03 05:39:15;;;;;;;;;;;16.40;60.10;;;;;;4998253;28;87805;-58
2021/09/03 05:41:41;;;;;;;;;;;16.40;60.10;;;;;;4999859;28;87137;-58
2021/09/03 05:44:07;;;;;;;;;;;16.40;60.10;;;;;;5001366;28;87823;-58
2021/09/03 05:46:32;;;;;;;;;;;16.40;60.10;;;;;;5003802;28;88819;-58
2021/09/03 05:48:58;;;;;;;;;;;16.40;60.00;;;;;;5000898;28;87617;-58
2021/09/03 05:51:23;;;;;;;;;;;16.50;59.90;;;;;;4998254;28;89497;-58
2021/09/03 05:53:49;;;;;;;;;;;16.50;59.90;;;;;;4996384;28;87168;-58
2021/09/03 05:56:14;;;;;;;;;;;16.40;59.90;;;;;;4997618;28;87472;-58
2021/09/03 05:58:40;;;;;;;;;;;16.40;60.00;;;;;;4997506;28;89493;-58
2021/09/03 06:01:05;;;;;;;;;;;16.50;59.90;;;;;;4997475;28;87137;-58
2021/09/03 06:03:31;;;;;;;;;;;16.40;60.00;;;;;;4999739;28;89079;-58
2021/09/03 06:05:56;;;;;;;;;;;16.40;60.00;;;;;;5000506;28;88241;-58
2021/09/03 06:08:22;;;;;;;;;;;16.40;60.00;;;;;;5000890;28;86610;-58
2021/09/03 06:10:47;;;;;;;;;;;16.50;60.00;;;;;;4996199;28;87897;-58
2021/09/03 06:13:13;;;;;;;;;;;16.40;59.90;;;;;;4997874;28;87228;-58
2021/09/03 06:15:38;;;;;;;;;;;16.40;60.00;;;;;;4998516;28;88071;-58
2021/09/03 06:18:04;;;;;;;;;;;16.40;60.00;;;;;;4998626;28;88276;-58
2021/09/03 06:20:30;;;;;;;;;;;16.40;60.00;;;;;;5000284;28;87131;-58
2021/09/03 06:22:55;;;;;;;;;;;16.40;60.00;;;;;;4999206;28;88672;-58
2021/09/03 06:25:21;;;;;;;;;;;16.40;60.00;;;;;;4996831;28;89521;-59
2021/09/03 06:27:46;;;;;;;;;;;16.40;60.10;;;;;;4996139;28;88081;-58
2021/09/03 06:30:12;;;;;;;;;;;16.40;60.10;;;;;;4998968;28;87646;-58
2021/09/03 06:32:37;;;;;;;;;;;16.40;60.00;;;;;;4997213;28;86414;-58
2021/09/03 06:35:03;;;;;;;;;;;16.40;60.10;;;;;;4998102;28;87206;-58
2021/09/03 06:37:30;;;;;;;;;;;16.40;60.10;;;;;;4995649;28;88274;-58
2021/09/03 06:39:55;;;;;;;;;;;16.40;60.00;;;;;;4996045;28;88107;-58
2021/09/03 06:42:21;;;;;;;;;;;16.40;60.10;;;;;;4996414;28;89800;-59
2021/09/03 06:44:47;;;;;;;;;;;16.40;60.10;;;;;;4996639;28;89724;-58
2021/09/03 06:47:14;;;;;;;;;;;16.40;60.10;;;;;;4998021;28;87108;-58
2021/09/03 06:49:40;;;;;;;;;;;16.40;60.10;;;;;;4997209;28;88145;-58
2021/09/03 06:52:07;;;;;;;;;;;16.40;60.20;;;;;;5000094;28;87855;-58
2021/09/03 06:54:33;;;;;;;;;;;16.40;60.20;;;;;;4997913;28;87534;-58
2021/09/03 06:56:58;;;;;;;;;;;16.40;60.10;;;;;;4998673;28;87553;-58
2021/09/03 06:59:24;;;;;;;;;;;16.40;60.20;;;;;;4998445;28;87140;-58
2021/09/03 07:01:50;;;;;;;;;;;16.40;60.30;;;;;;4998970;28;88000;-57
2021/09/03 07:04:15;;;;;;;;;;;16.30;60.30;;;;;;4999085;28;89963;-58
2021/09/03 07:06:41;;;;;;;;;;;16.40;60.40;;;;;;4997397;28;88059;-58
2021/09/03 07:09:06;;;;;;;;;;;16.40;60.50;;;;;;4995698;28;87201;-59
2021/09/03 07:11:32;;;;;;;;;;;16.40;60.40;;;;;;4997157;28;87295;-58
2021/09/03 07:13:58;;;;;;;;;;;16.40;60.40;;;;;;5003760;28;87137;-58
2021/09/03 07:16:24;;;;;;;;;;;16.40;60.50;;;;;;5000827;28;89930;-58
2021/09/03 07:18:50;;;;;;;;;;;16.40;60.60;;;;;;5001212;28;87127;-58
2021/09/03 07:21:15;;;;;;;;;;;16.40;60.50;;;;;;5002388;28;87009;-58
2021/09/03 07:23:41;;;;;;;;;;;16.40;60.50;;;;;;5002775;28;87465;-59
2021/09/03 07:26:07;;;;;;;;;;;16.40;60.60;;;;;;5001379;28;88647;-58
2021/09/03 07:28:33;;;;;;;;;;;16.40;60.50;;;;;;4998986;28;89752;-58
2021/09/03 07:30:59;;;;;;;;;;;16.30;60.50;;;;;;4998671;28;88239;-58
2021/09/03 07:33:24;;;;;;;;;;;16.30;60.50;;;;;;5002710;28;87162;-58
2021/09/03 07:35:50;;;;;;;;;;;16.30;60.60;;;;;;5000604;28;88172;-58
2021/09/03 07:38:15;;;;;;;;;;;16.30;60.60;;;;;;5002181;28;87154;-58
2021/09/03 07:40:41;;;;;;;;;;;16.30;60.80;;;;;;5002949;28;87469;-59
2021/09/03 07:43:07;;;;;;;;;;;16.30;60.70;;;;;;4999859;28;89575;-58
2021/09/03 07:45:36;;;;;;;;;;;16.30;61.10;;;;;;5003088;28;87814;-58
2021/09/03 07:48:02;;;;;;;;;;;16.30;60.80;;;;;;4999741;28;87169;-58
2021/09/03 07:50:27;;;;;;;;;;;16.30;60.90;;;;;;4998668;28;87596;-58
2021/09/03 07:52:53;;;;;;;;;;;16.30;61.00;;;;;;4997632;28;88164;-59
2021/09/03 07:55:19;;;;;;;;;;;16.30;60.80;;;;;;5001376;28;89458;-58
2021/09/03 07:57:44;;;;;;;;;;;16.30;60.70;;;;;;4998514;28;87140;-58
2021/09/03 08:00:10;;;;;;;;;;;16.40;60.80;;;;;;4999557;28;88790;-58
2021/09/03 08:02:36;;;;;;;;;;;16.40;60.70;;;;;;5000299;28;88301;-58
2021/09/03 08:05:01;;;;;;;;;;;16.40;60.80;;;;;;5001708;28;87108;-58
2021/09/03 08:07:28;;;;;;;;;;;16.40;60.90;;;;;;5002691;28;88894;-59
2021/09/03 08:09:54;;;;;;;;;;;16.40;60.90;;;;;;5000841;28;89481;-58
2021/09/03 08:12:20;;;;;;;;;;;16.30;60.90;;;;;;5001156;28;87279;-58
2021/09/03 08:14:46;;;;;;;;;;;16.40;60.70;;;;;;5001419;28;89187;-59
2021/09/03 08:17:12;;;;;;;;;;;16.40;60.80;;;;;;5004007;28;89372;-58
2021/09/03 08:19:37;;;;;;;;;;;16.40;60.80;;;;;;4998929;28;88808;-58
2021/09/03 08:22:03;;;;;;;;;;;16.40;60.80;;;;;;4998009;28;87428;-58
2021/09/03 08:24:28;;;;;;;;;;;16.40;60.80;;;;;;4998284;28;87113;-58
2021/09/03 08:26:54;;;;;;;;;;;16.40;60.80;;;;;;5000213;28;88041;-58
2021/09/03 08:29:19;;;;;;;;;;;16.40;60.90;;;;;;4999906;28;87617;-58
2021/09/03 08:31:45;;;;;;;;;;;16.40;60.90;;;;;;5000211;28;87264;-58
2021/09/03 08:34:11;;;;;;;;;;;16.40;60.90;;;;;;4999968;28;86953;-58
2021/09/03 08:36:36;;;;;;;;;;;16.50;60.90;;;;;;4998549;28;87690;-58
2021/09/03 08:39:02;;;;;;;;;;;16.50;60.80;;;;;;5002631;28;87146;-58
2021/09/03 08:41:28;;;;;;;;;;;16.50;60.80;;;;;;4999631;28;90454;-58
2021/09/03 08:43:58;;;;;;;;;;;16.50;60.70;;;;;;5001549;28;87166;-58
2021/09/03 08:46:24;;;;;;;;;;;16.50;60.80;;;;;;5001466;28;88855;-59
2021/09/03 08:48:50;;;;;;;;;;;16.50;60.90;;;;;;4999650;28;88743;-59
2021/09/03 08:51:16;;;;;;;;;;;16.50;60.80;;;;;;4997221;28;87178;-58
2021/09/03 08:53:41;;;;;;;;;;;16.50;60.90;;;;;;4997274;28;87211;-58
2021/09/03 08:56:07;;;;;;;;;;;16.50;60.90;;;;;;4996802;28;88542;-58
2021/09/03 08:58:33;;;;;;;;;;;16.60;60.90;;;;;;4997897;28;86417;-59
2021/09/03 09:01:12;;;;;;;;;;;16.60;61.00;;;;;;4999936;28;88354;-58
2021/09/03 09:03:42;;;;;;;;;;;16.50;60.90;;;;;;4999812;28;87167;-59
2021/09/03 09:06:08;;;;;;;;;;;16.50;60.90;;;;;;5000905;28;88141;-57
2021/09/03 09:08:35;;;;;;;;;;;16.60;60.90;;;;;;5000990;28;88874;-58
2021/09/03 09:11:02;;;;;;;;;;;16.60;60.80;;;;;;5001471;28;87223;-56
2021/09/03 09:13:32;;;;;;;;;;;16.60;60.70;;;;;;4998581;28;88956;-58
2021/09/03 09:15:58;;;;;;;;;;;16.60;60.70;;;;;;4998733;28;88247;-58
2021/09/03 09:18:37;;;;;;;;;;;16.60;60.70;;;;;;5000238;28;87159;-58
2021/09/03 09:21:16;;;;;;;;;;;16.60;60.60;;;;;;4997001;28;87955;-58
2021/09/03 09:23:46;;;;;;;;;;;16.70;60.60;;;;;;5002160;28;88517;-59
2021/09/03 09:26:12;;;;;;;;;;;16.60;60.60;;;;;;4999679;28;87151;-59
2021/09/03 09:28:38;;;;;;;;;;;16.60;60.60;;;;;;4999570;28;88277;-58
2021/09/03 09:31:04;;;;;;;;;;;16.70;60.60;;;;;;5000247;28;88165;-58
2021/09/03 09:33:29;;;;;;;;;;;16.60;60.50;;;;;;5000584;28;88801;-58
2021/09/03 09:35:56;;;;;;;;;;;16.60;61.10;;;;;;4996957;28;88299;-58
2021/09/03 09:38:23;;;;;;;;;;;16.70;60.50;;;;;;4998675;28;88828;-59
2021/09/03 09:40:53;;;;;;;;;;;16.70;60.50;;;;;;5001502;28;87617;-59
2021/09/03 09:43:42;;;;;;;;;;;16.70;60.50;;;;;;5001924;28;89233;-58
2021/09/03 09:46:07;;;;;;;;;;;16.70;60.40;;;;;;4993043;28;88776;-58
2021/09/03 09:48:52;;;;;;;;;;;16.70;60.50;;;;;;4999863;28;88921;-58
2021/09/03 09:51:43;;;;;;;;;;;16.70;60.40;;;;;;4998175;28;88652;-58
2021/09/03 09:54:09;;;;;;;;;;;16.80;60.40;;;;;;4992265;28;88748;-58
2021/09/03 09:56:36;;;;;;;;;;;16.70;60.40;;;;;;4995435;28;88085;-58
2021/09/03 09:59:03;;;;;;;;;;;16.70;60.50;;;;;;5000641;28;87177;-58
2021/09/03 10:01:29;;;;;;;;;;;16.80;60.60;;;;;;4998690;28;88904;-59
2021/09/03 10:03:55;;;;;;;;;;;16.80;60.70;;;;;;4996806;28;88750;-58
2021/09/03 10:06:25;;;;;;;;;;;16.80;60.60;;;;;;4999863;28;87157;-59
2021/09/03 10:08:51;;;;;;;;;;;16.80;60.50;;;;;;4996683;28;87607;-58
2021/09/03 10:11:17;;;;;;;;;;;16.80;60.60;;;;;;4997689;28;87171;-59
2021/09/03 10:13:43;;;;;;;;;;;16.80;60.50;;;;;;4999020;28;86403;-58
2021/09/03 10:16:09;;;;;;;;;;;16.90;60.60;;;;;;4999086;28;89321;-58
2021/09/03 10:18:34;;;;;;;;;;;16.90;60.50;;;;;;4998366;28;87242;-58
2021/09/03 10:21:03;;;;;;;;;;;16.90;60.40;;;;;;4997721;28;88115;-58
2021/09/03 10:23:48;;;;;;;;;;;16.90;60.30;;;;;;4999727;28;88026;-58
2021/09/03 10:26:14;;;;;;;;;;;16.90;60.30;;;;;;5000734;28;87131;-58
2021/09/03 10:28:40;;;;;;;;;;;16.90;60.40;;;;;;5001550;28;88339;-58
2021/09/03 10:31:06;;;;;;;;;;;16.90;60.40;;;;;;4998400;28;87113;-59
2021/09/03 10:33:35;;;;;;;;;;;16.90;60.40;;;;;;4997851;28;87137;-59
2021/09/03 10:36:02;;;;;;;;;;;17.00;60.40;;;;;;4999703;28;87476;-58
2021/09/03 10:38:34;;;;;;;;;;;17.00;60.40;;;;;;5001013;28;87148;-58
2021/09/03 10:41:01;;;;;;;;;;;17.00;60.30;;;;;;4998956;28;88098;-58
2021/09/03 10:43:42;;;;;;;;;;;17.00;60.30;;;;;;4996444;28;88283;-58
2021/09/03 10:46:09;;;;;;;;;;;17.10;60.30;;;;;;4997724;28;89575;-59
2021/09/03 10:48:35;;;;;;;;;;;17.10;60.30;;;;;;5002583;28;89022;-59
2021/09/03 10:51:00;;;;;;;;;;;17.10;60.30;;;;;;5005800;28;87761;-57
2021/09/03 10:53:31;;;;;;;;;;;17.10;60.30;;;;;;5003172;28;88748;-59
2021/09/03 10:55:58;;;;;;;;;;;17.10;60.30;;;;;;4998753;28;88141;-59
2021/09/03 10:58:36;;;;;;;;;;;17.20;60.20;;;;;;5002248;28;87235;-58
2021/09/03 11:01:11;;;;;;;;;;;17.10;60.30;;;;;;4999433;28;88722;-59
2021/09/03 11:03:46;;;;;;;;;;;17.20;60.20;;;;;;5001738;28;88314;-58
2021/09/03 11:06:13;;;;;;;;;;;17.20;60.30;;;;;;5002995;28;87975;-59
2021/09/03 11:08:38;;;;;;;;;;;17.20;60.30;;;;;;5002799;28;88781;-58
2021/09/03 11:11:22;;;;;;;;;;;17.20;60.30;;;;;;5002544;28;89470;-58
2021/09/03 11:13:52;;;;;;;;;;;17.20;60.30;;;;;;5003362;28;87151;-59
2021/09/03 11:16:36;;;;;;;;;;;17.30;60.30;;;;;;5001265;28;87987;-58
2021/09/03 11:19:02;;;;;;;;;;;17.30;60.20;;;;;;5000246;28;88326;-59
2021/09/03 11:21:29;;;;;;;;;;;17.30;60.30;;;;;;5000017;28;88822;-58
2021/09/03 11:23:54;;;;;;;;;;;17.30;60.20;;;;;;5000099;28;88126;-59
2021/09/03 11:26:20;;;;;;;;;;;17.30;60.20;;;;;;5000173;28;88631;-59
2021/09/03 11:28:45;;;;;;;;;;;17.40;60.30;;;;;;4998853;28;89241;-59
2021/09/03 11:31:11;;;;;;;;;;;17.40;60.30;;;;;;4998010;28;89611;-58
2021/09/03 11:33:43;;;;;;;;;;;17.40;60.20;;;;;;4998591;28;87168;-59
2021/09/03 11:36:09;;;;;;;;;;;17.40;60.30;;;;;;5002219;28;88965;-59
2021/09/03 11:38:34;;;;;;;;;;;17.40;60.30;;;;;;4998982;28;87250;-59
2021/09/03 11:41:10;;;;;;;;;;;17.50;60.00;;;;;;5000122;28;87175;-58
2021/09/03 11:43:35;;;;;;;;;;;17.50;60.00;;;;;;5001073;28;88103;-58
2021/09/03 11:46:12;;;;;;;;;;;17.50;60.10;;;;;;5002673;28;87130;-59
2021/09/03 11:48:38;;;;;;;;;;;17.50;60.00;;;;;;5000469;28;87186;-58
2021/09/03 11:51:03;;;;;;;;;;;17.60;60.80;;;;;;5001292;28;87694;-58
2021/09/03 11:53:29;;;;;;;;;;;17.60;60.10;;;;;;5003376;28;86414;-59
2021/09/03 11:55:55;;;;;;;;;;;17.60;60.00;;;;;;5003173;28;88425;-59
2021/09/03 11:58:24;;;;;;;;;;;17.60;60.00;;;;;;4997027;28;87216;-59
2021/09/03 12:00:50;;;;;;;;;;;17.60;59.90;;;;;;5000738;28;88067;-58
2021/09/03 12:03:18;;;;;;;;;;;17.60;60.00;;;;;;5000780;28;88670;-58
2021/09/03 12:05:48;;;;;;;;;;;17.60;60.00;;;;;;4999748;28;87161;-59
2021/09/03 12:08:15;;;;;;;;;;;17.70;59.90;;;;;;5001926;28;87440;-59
2021/09/03 12:10:40;;;;;;;;;;;17.70;60.00;;;;;;5000576;28;88390;-59
2021/09/03 12:13:10;;;;;;;;;;;17.70;60.00;;;;;;5002163;28;87097;-59
2021/09/03 12:15:36;;;;;;;;;;;17.70;59.90;;;;;;4999452;28;88344;-58
2021/09/03 12:18:06;;;;;;;;;;;17.70;60.00;;;;;;5000905;28;89048;-59
2021/09/03 12:20:32;;;;;;;;;;;17.80;60.00;;;;;;4999721;28;87206;-59
2021/09/03 12:22:58;;;;;;;;;;;17.80;59.90;;;;;;5000411;28;89196;-59
2021/09/03 12:25:30;;;;;;;;;;;17.80;59.90;;;;;;5001120;28;88088;-58
2021/09/03 12:28:05;;;;;;;;;;;17.80;59.90;;;;;;5000496;28;89876;-59
2021/09/03 12:30:31;;;;;;;;;;;17.80;59.80;;;;;;5000802;28;89711;-59
2021/09/03 12:33:16;;;;;;;;;;;17.80;59.80;;;;;;4998600;28;88000;-59
2021/09/03 12:35:43;;;;;;;;;;;17.80;59.80;;;;;;4997877;28;87537;-59
2021/09/03 12:38:09;;;;;;;;;;;17.90;60.40;;;;;;5002037;28;88499;-59
2021/09/03 12:40:34;;;;;;;;;;;17.90;59.80;;;;;;5002947;28;87854;-59
2021/09/03 12:43:00;;;;;;;;;;;17.90;59.80;;;;;;4997672;28;86970;-59
2021/09/03 12:45:40;;;;;;;;;;;17.90;59.80;;;;;;4998931;28;87264;-59
2021/09/03 12:48:06;;;;;;;;;;;17.90;59.80;;;;;;5000196;28;87887;-59
2021/09/03 12:50:32;;;;;;;;;;;18.00;59.80;;;;;;5000386;28;89296;-59
2021/09/03 12:52:57;;;;;;;;;;;18.00;59.80;;;;;;5001954;28;87423;-59
2021/09/03 12:55:23;;;;;;;;;;;18.00;59.80;;;;;;4999015;28;88879;-59
2021/09/03 12:57:48;;;;;;;;;;;18.00;59.80;;;;;;4997230;28;90240;-59
2021/09/03 13:00:14;;;;;;;;;;;18.10;59.80;;;;;;4997745;28;87143;-59
2021/09/03 13:02:39;;;;;;;;;;;18.10;59.70;;;;;;5001167;28;87653;-59
2021/09/03 13:05:05;;;;;;;;;;;18.10;59.70;;;;;;4998812;28;87177;-58
2021/09/03 13:07:30;;;;;;;;;;;18.10;59.70;;;;;;4999922;28;88885;-59
2021/09/03 13:09:57;;;;;;;;;;;18.10;59.60;;;;;;4999865;28;88347;-59
2021/09/03 13:12:23;;;;;;;;;;;18.20;59.70;;;;;;5000451;28;87201;-58
2021/09/03 13:14:48;;;;;;;;;;;18.20;59.60;;;;;;5000914;28;88194;-59
2021/09/03 13:17:14;;;;;;;;;;;18.20;59.70;;;;;;4998023;28;88285;-58
2021/09/03 13:19:39;;;;;;;;;;;18.20;59.70;;;;;;4997535;28;87162;-58
2021/09/03 13:22:05;;;;;;;;;;;18.20;59.70;;;;;;4998502;28;87589;-59
2021/09/03 13:24:31;;;;;;;;;;;18.20;59.60;;;;;;5000391;28;87747;-59
2021/09/03 13:26:57;;;;;;;;;;;18.30;59.70;;;;;;4997537;28;88628;-59
2021/09/03 13:29:22;;;;;;;;;;;18.30;59.60;;;;;;4997735;28;89437;-59
2021/09/03 13:31:48;;;;;;;;;;;18.30;59.60;;;;;;4998988;28;86469;-59
2021/09/03 13:34:13;;;;;;;;;;;18.30;59.60;;;;;;4999318;28;87237;-59
2021/09/03 13:36:39;;;;;;;;;;;18.40;59.60;;;;;;5000256;28;87233;-59
2021/09/03 13:39:05;;;;;;;;;;;18.40;59.60;;;;;;4999506;28;88079;-59
2021/09/03 13:41:31;;;;;;;;;;;18.40;59.60;;;;;;4998296;28;88749;-59
2021/09/03 13:43:57;;;;;;;;;;;18.40;59.50;;;;;;4996822;28;89699;-59
2021/09/03 13:46:23;;;;;;;;;;;18.50;59.60;;;;;;5000720;28;88037;-58
2021/09/03 13:48:50;;;;;;;;;;;18.50;59.50;;;;;;5000250;28;89206;-59
2021/09/03 13:51:15;;;;;;;;;;;18.50;59.50;;;;;;5001101;28;87544;-59
2021/09/03 13:53:42;;;;;;;;;;;18.50;59.40;;;;;;5000538;28;87423;-59
2021/09/03 13:56:07;;;;;;;;;;;18.60;59.00;;;;;;4999779;28;89046;-59
2021/09/03 13:58:33;;;;;;;;;;;18.60;58.90;;;;;;4999261;28;87197;-59
2021/09/03 14:00:58;;;;;;;;;;;18.60;58.80;;;;;;4998353;28;87704;-59
2021/09/03 14:03:24;;;;;;;;;;;18.70;58.70;;;;;;4996994;28;88803;-59
2021/09/03 14:05:50;;;;;;;;;;;18.70;58.60;;;;;;5001232;28;87158;-59
2021/09/03 14:08:15;;;;;;;;;;;18.80;58.60;;;;;;4997605;28;90091;-59
2021/09/03 14:10:41;;;;;;;;;;;18.70;58.60;;;;;;4997720;28;87201;-59
2021/09/03 14:13:06;;;;;;;;;;;18.80;58.70;;;;;;4997109;28;87775;-59